Time;durP1;ratioP1;P1;durP2;ratioP2;P2;SDS_P1;SDS_P2;PMS_P1;PMS_P2;Temp;Humidity;BMP_temperature;BMP_pressure;BME280_temperature;BME280_humidity;BME280_pressure;Samples;Min_cycle;Max_cycle;Signal;HPM_P1;HPM_P2
2021/08/01 00:00:43;;;;;;;7.73;3.63;;;;;;;;;;10245195;28;20685;-71
2021/08/01 00:05:47;;;;;;;6.47;3.70;;;;;;;;;;10246122;28;21024;-72
2021/08/01 00:10:49;;;;;;;7.30;3.23;;;;;;;;;;10242939;28;20279;-71
2021/08/01 00:15:52;;;;;;;6.47;3.43;;;;;;;;;;10245750;28;20385;-71
2021/08/01 00:20:56;;;;;;;5.80;3.23;;;;;;;;;;10267423;28;20200;-72
2021/08/01 00:25:59;;;;;;;6.50;3.30;;;;;;;;;;10247639;28;20679;-72
2021/08/01 00:31:01;;;;;;;9.50;3.53;;;;;;;;;;10244209;28;20204;-72
2021/08/01 00:36:05;;;;;;;7.07;3.80;;;;;;;;;;10259823;28;20219;-72
2021/08/01 00:41:08;;;;;;;8.17;3.93;;;;;;;;;;10251410;28;20275;-71
2021/08/01 00:46:11;;;;;;;7.83;4.23;;;;;;;;;;10255816;28;20222;-72
2021/08/01 00:51:15;;;;;;;8.97;4.20;;;;;;;;;;10248070;28;20212;-72
2021/08/01 00:56:17;;;;;;;8.90;4.50;;;;;;;;;;10234227;28;20212;-72
2021/08/01 01:01:23;;;;;;;8.20;4.60;;;;;;;;;;10250315;28;20231;-72
2021/08/01 01:06:32;;;;;;;7.57;4.00;;;;;;;;;;10233883;28;20232;-71
2021/08/01 01:11:37;;;;;;;10.33;4.00;;;;;;;;;;10235692;28;20621;-72
2021/08/01 01:16:41;;;;;;;8.13;4.40;;;;;;;;;;10251846;28;20777;-72
2021/08/01 01:21:55;;;;;;;9.13;4.43;;;;;;;;;;10252785;28;20266;-71
2021/08/01 01:27:04;;;;;;;9.20;4.50;;;;;;;;;;10246871;28;20215;-72
2021/08/01 01:32:10;;;;;;;8.70;4.23;;;;;;;;;;10247354;28;20585;-72
2021/08/01 01:37:15;;;;;;;10.40;4.03;;;;;;;;;;10243316;28;20288;-72
2021/08/01 01:42:18;;;;;;;7.40;4.07;;;;;;;;;;10242235;28;20632;-71
2021/08/01 01:47:22;;;;;;;8.70;4.00;;;;;;;;;;10252331;28;20638;-71
2021/08/01 01:52:26;;;;;;;8.57;4.20;;;;;;;;;;10239592;28;20208;-72
2021/08/01 01:57:29;;;;;;;7.13;4.17;;;;;;;;;;10240694;28;20220;-72
2021/08/01 02:02:32;;;;;;;8.47;3.70;;;;;;;;;;10255375;28;20197;-71
2021/08/01 02:07:37;;;;;;;10.03;4.40;;;;;;;;;;10243961;28;20299;-73
2021/08/01 02:12:43;;;;;;;7.73;4.20;;;;;;;;;;10243496;28;20252;-72
2021/08/01 02:17:50;;;;;;;8.53;4.27;;;;;;;;;;10237019;28;20212;-72
2021/08/01 02:22:55;;;;;;;7.43;4.20;;;;;;;;;;10238558;28;20200;-72
2021/08/01 02:28:00;;;;;;;7.63;4.00;;;;;;;;;;10244043;28;20296;-71
2021/08/01 02:33:03;;;;;;;10.03;4.33;;;;;;;;;;10244488;28;20565;-71
2021/08/01 02:38:08;;;;;;;8.37;4.07;;;;;;;;;;10243569;28;20291;-71
2021/08/01 02:43:12;;;;;;;8.00;3.77;;;;;;;;;;10234568;28;20283;-71
2021/08/01 02:48:15;;;;;;;7.10;4.27;;;;;;;;;;10247772;28;20238;-71
2021/08/01 02:53:19;;;;;;;9.17;4.30;;;;;;;;;;10241220;28;20621;-71
2021/08/01 02:58:22;;;;;;;9.40;4.60;;;;;;;;;;10245377;28;20378;-71
2021/08/01 03:03:25;;;;;;;7.93;4.70;;;;;;;;;;10255401;28;20263;-71
2021/08/01 03:08:29;;;;;;;9.97;4.80;;;;;;;;;;10240237;28;20682;-71
2021/08/01 03:13:31;;;;;;;7.40;4.50;;;;;;;;;;10241765;28;20260;-71
2021/08/01 03:18:34;;;;;;;10.10;4.60;;;;;;;;;;10255580;28;20278;-71
2021/08/01 03:23:38;;;;;;;8.30;4.47;;;;;;;;;;10247333;28;20635;-72
2021/08/01 03:28:41;;;;;;;10.87;4.53;;;;;;;;;;10262167;28;20216;-73
2021/08/01 03:33:43;;;;;;;7.53;3.77;;;;;;;;;;10262175;28;20195;-72
2021/08/01 03:38:47;;;;;;;9.70;4.50;;;;;;;;;;10260312;28;20225;-73
2021/08/01 03:43:50;;;;;;;3.80;2.20;;;;;;;;;;10239339;28;20279;-74
2021/08/01 03:48:52;;;;;;;4.20;1.93;;;;;;;;;;10247824;28;20220;-74
2021/08/01 03:53:56;;;;;;;6.03;2.30;;;;;;;;;;10243932;28;20284;-74
2021/08/01 03:58:58;;;;;;;2.77;1.50;;;;;;;;;;10264093;28;20331;-74
2021/08/01 04:04:01;;;;;;;3.33;1.73;;;;;;;;;;10245423;28;20274;-74
2021/08/01 04:09:05;;;;;;;4.17;1.87;;;;;;;;;;10247803;28;20283;-75
2021/08/01 04:14:07;;;;;;;3.80;2.30;;;;;;;;;;10242850;28;20329;-74
2021/08/01 04:19:30;;;;;;;8.07;3.73;;;;;;;;;;10247098;28;20318;-73
2021/08/01 04:24:34;;;;;;;5.47;2.97;;;;;;;;;;10241558;28;20265;-73
2021/08/01 04:29:37;;;;;;;6.17;2.77;;;;;;;;;;10250633;28;20211;-73
2021/08/01 04:34:39;;;;;;;6.53;2.87;;;;;;;;;;10261003;28;20196;-72
2021/08/01 04:39:43;;;;;;;5.43;2.77;;;;;;;;;;10239925;28;20303;-73
2021/08/01 04:44:46;;;;;;;5.93;2.70;;;;;;;;;;10246084;28;20290;-73
2021/08/01 04:49:49;;;;;;;5.30;2.10;;;;;;;;;;10226844;28;20197;-74
2021/08/01 04:54:53;;;;;;;6.67;2.43;;;;;;;;;;10231771;28;20227;-74
2021/08/01 04:59:56;;;;;;;5.17;2.33;;;;;;;;;;10223924;28;20216;-72
2021/08/01 05:05:00;;;;;;;5.20;2.60;;;;;;;;;;10242995;28;20298;-72
2021/08/01 05:10:04;;;;;;;3.67;1.93;;;;;;;;;;10241371;28;20193;-73
2021/08/01 05:15:07;;;;;;;3.97;2.00;;;;;;;;;;10245049;28;20283;-73
2021/08/01 05:20:10;;;;;;;3.47;2.00;;;;;;;;;;10249184;28;20200;-74
2021/08/01 05:25:14;;;;;;;4.00;2.00;;;;;;;;;;10242332;28;20220;-72
2021/08/01 05:30:17;;;;;;;3.87;2.20;;;;;;;;;;10243322;28;20287;-74
2021/08/01 05:35:19;;;;;;;3.73;2.10;;;;;;;;;;10220502;28;20307;-75
2021/08/01 05:40:23;;;;;;;3.17;2.10;;;;;;;;;;10234959;28;20219;-74
2021/08/01 05:45:26;;;;;;;5.17;2.23;;;;;;;;;;10235785;28;20736;-74
2021/08/01 05:50:28;;;;;;;4.57;2.43;;;;;;;;;;10232029;28;20204;-74
2021/08/01 05:55:32;;;;;;;5.13;2.67;;;;;;;;;;10234591;28;20238;-74
2021/08/01 06:00:35;;;;;;;5.63;2.60;;;;;;;;;;10236849;28;20240;-73
2021/08/01 06:05:38;;;;;;;5.13;2.50;;;;;;;;;;10239890;28;20216;-74
2021/08/01 06:10:41;;;;;;;5.40;2.60;;;;;;;;;;10240904;28;20196;-73
2021/08/01 06:15:44;;;;;;;4.53;2.40;;;;;;;;;;10245163;28;20224;-73
2021/08/01 06:20:46;;;;;;;4.60;2.60;;;;;;;;;;10248792;28;20227;-73
2021/08/01 06:25:51;;;;;;;5.30;2.37;;;;;;;;;;10237272;28;20231;-74
2021/08/01 06:30:54;;;;;;;5.37;2.50;;;;;;;;;;10245707;28;20195;-74
2021/08/01 06:35:57;;;;;;;5.77;3.03;;;;;;;;;;10245278;28;20224;-74
2021/08/01 06:41:00;;;;;;;3.93;2.30;;;;;;;;;;10241435;28;20213;-75
2021/08/01 06:46:03;;;;;;;4.77;2.40;;;;;;;;;;10246143;28;20255;-76
2021/08/01 06:51:06;;;;;;;4.50;2.27;;;;;;;;;;10225883;28;20232;-74
2021/08/01 06:56:10;;;;;;;4.70;2.10;;;;;;;;;;10244978;28;20294;-74
2021/08/01 07:01:13;;;;;;;3.73;2.13;;;;;;;;;;10252497;28;20204;-75
2021/08/01 07:06:16;;;;;;;3.40;1.97;;;;;;;;;;10241094;28;20219;-73
2021/08/01 07:11:20;;;;;;;4.43;2.00;;;;;;;;;;10267152;28;20196;-74
2021/08/01 07:16:22;;;;;;;3.90;1.77;;;;;;;;;;10253542;28;20224;-75
2021/08/01 07:21:25;;;;;;;3.90;2.20;;;;;;;;;;10250687;28;20336;-73
2021/08/01 07:26:29;;;;;;;3.53;2.10;;;;;;;;;;10251036;28;20637;-74
2021/08/01 07:31:31;;;;;;;4.23;2.17;;;;;;;;;;10252474;28;20615;-70
2021/08/01 07:36:34;;;;;;;3.43;1.80;;;;;;;;;;10250917;28;20738;-74
2021/08/01 07:41:38;;;;;;;4.70;2.40;;;;;;;;;;10252504;28;20230;-74
2021/08/01 07:46:40;;;;;;;4.07;1.90;;;;;;;;;;10252367;28;20339;-73
2021/08/01 07:51:43;;;;;;;6.03;2.13;;;;;;;;;;10238089;28;20199;-73
2021/08/01 07:56:47;;;;;;;5.43;3.13;;;;;;;;;;10245700;28;20903;-72
2021/08/01 08:01:50;;;;;;;5.03;2.30;;;;;;;;;;10246557;28;20220;-74
2021/08/01 08:06:52;;;;;;;3.57;2.10;;;;;;;;;;10258511;28;20224;-74
2021/08/01 08:11:56;;;;;;;6.03;2.60;;;;;;;;;;10247810;28;20231;-74
2021/08/01 08:16:59;;;;;;;7.30;3.47;;;;;;;;;;10243915;28;20302;-74
2021/08/01 08:22:02;;;;;;;4.10;2.20;;;;;;;;;;10252573;28;20228;-72
2021/08/01 08:27:06;;;;;;;8.53;3.83;;;;;;;;;;10235654;28;20228;-75
2021/08/01 08:32:09;;;;;;;6.70;3.30;;;;;;;;;;10244858;28;20224;-73
2021/08/01 08:37:12;;;;;;;3.33;2.00;;;;;;;;;;10253205;28;20224;-73
2021/08/01 08:42:16;;;;;;;4.10;2.10;;;;;;;;;;10247359;28;20205;-73
2021/08/01 08:47:20;;;;;;;4.50;2.30;;;;;;;;;;10238853;28;20314;-74
2021/08/01 08:52:22;;;;;;;4.27;2.43;;;;;;;;;;10233485;28;20188;-74
2021/08/01 08:57:29;;;;;;;3.93;2.03;;;;;;;;;;10248607;28;20616;-73
2021/08/01 09:02:34;;;;;;;3.77;2.10;;;;;;;;;;10253890;28;20204;-74
2021/08/01 09:07:39;;;;;;;4.87;2.67;;;;;;;;;;10238123;28;20226;-73
2021/08/01 09:12:43;;;;;;;6.33;2.50;;;;;;;;;;10254970;28;20200;-72
2021/08/01 09:17:46;;;;;;;3.37;2.03;;;;;;;;;;10237431;28;20319;-75
2021/08/01 09:23:09;;;;;;;4.25;2.08;;;;;;;;;;10242287;28;20244;-74
2021/08/01 09:28:14;;;;;;;4.13;2.15;;;;;;;;;;10254454;28;20286;-73
2021/08/01 09:33:20;;;;;;;4.28;2.70;;;;;;;;;;10250974;28;20224;-73
2021/08/01 09:38:25;;;;;;;2.45;1.80;;;;;;;;;;10253999;28;20248;-74
2021/08/01 09:43:33;;;;;;;3.35;2.00;;;;;;;;;;10244769;28;20723;-73
2021/08/01 09:48:35;;;;;;;6.20;2.67;;;;;;;;;;10237656;28;20711;-73
2021/08/01 09:53:40;;;;;;;5.57;2.70;;;;;;;;;;10244028;28;20228;-74
2021/08/01 09:58:44;;;;;;;4.15;2.35;;;;;;;;;;10246748;28;20716;-72
2021/08/01 10:03:49;;;;;;;2.42;1.70;;;;;;;;;;10240807;28;20297;-73
2021/08/01 10:08:52;;;;;;;3.90;2.20;;;;;;;;;;10231497;28;20211;-72
2021/08/01 10:13:56;;;;;;;4.28;2.22;;;;;;;;;;10248182;28;20648;-71
2021/08/01 10:18:59;;;;;;;4.18;2.08;;;;;;;;;;10241976;28;20220;-72
2021/08/01 10:24:02;;;;;;;4.28;2.00;;;;;;;;;;10259709;28;20663;-75
2021/08/01 10:29:08;;;;;;;3.70;1.98;;;;;;;;;;10245340;28;20239;-74
2021/08/01 10:34:12;;;;;;;4.38;2.35;;;;;;;;;;10246698;28;20737;-73
2021/08/01 10:39:16;;;;;;;4.17;2.27;;;;;;;;;;10248341;28;20588;-74
2021/08/01 10:44:20;;;;;;;4.80;2.37;;;;;;;;;;10247877;28;20304;-73
2021/08/01 10:49:23;;;;;;;4.00;2.00;;;;;;;;;;10252740;28;20212;-73
2021/08/01 10:54:30;;;;;;;3.07;1.80;;;;;;;;;;10243966;28;20844;-74
2021/08/01 10:59:53;;;;;;;4.77;2.07;;;;;;;;;;10239716;28;20254;-72
2021/08/01 11:04:57;;;;;;;4.40;2.13;;;;;;;;;;10241690;28;20671;-72
2021/08/01 11:10:14;;;;;;;4.97;2.50;;;;;;;;;;10241473;28;20197;-73
2021/08/01 11:15:17;;;;;;;3.50;2.30;;;;;;;;;;10236215;28;20244;-72
2021/08/01 11:20:34;;;;;;;4.50;2.30;;;;;;;;;;10236175;28;20236;-74
2021/08/01 11:25:40;;;;;;;5.07;2.90;;;;;;;;;;10238214;28;20301;-72
2021/08/01 11:30:58;;;;;;;5.97;2.50;;;;;;;;;;10241536;28;20196;-71
2021/08/01 11:36:15;;;;;;;6.67;2.63;;;;;;;;;;10242462;28;20307;-73
2021/08/01 11:41:34;;;;;;;12.20;7.80;;;;;;;;;;10253079;28;20250;-72
2021/08/01 11:46:58;;;;;;;5.33;2.87;;;;;;;;;;10250704;28;20208;-74
2021/08/01 11:52:02;;;;;;;6.37;2.50;;;;;;;;;;10254461;28;20192;-72
2021/08/01 11:57:06;;;;;;;7.03;3.37;;;;;;;;;;10249567;28;20220;-72
2021/08/01 12:02:10;;;;;;;6.93;2.90;;;;;;;;;;10247396;28;20216;-72
2021/08/01 12:07:13;;;;;;;12.10;8.17;;;;;;;;;;10246928;28;20764;-73
2021/08/01 12:12:26;;;;;;;7.27;3.50;;;;;;;;;;10249476;28;20188;-72
2021/08/01 12:17:35;;;;;;;5.83;3.03;;;;;;;;;;10248946;28;20351;-71
2021/08/01 12:22:38;;;;;;;4.50;2.50;;;;;;;;;;10247191;28;20213;-71
2021/08/01 12:27:42;;;;;;;4.43;2.33;;;;;;;;;;10253981;28;20752;-74
2021/08/01 12:32:46;;;;;;;4.93;2.67;;;;;;;;;;10235923;28;20621;-77
2021/08/01 12:37:51;;;;;;;4.80;2.40;;;;;;;;;;10249577;28;20220;-70
2021/08/01 12:42:56;;;;;;;4.87;2.17;;;;;;;;;;10240310;28;20227;-74
2021/08/01 12:47:58;;;;;;;3.90;2.20;;;;;;;;;;10248912;28;20331;-72
2021/08/01 12:53:02;;;;;;;5.70;2.70;;;;;;;;;;10245873;28;20677;-71
2021/08/01 12:58:08;;;;;;;5.57;2.73;;;;;;;;;;10259619;28;20299;-72
2021/08/01 13:03:11;;;;;;;5.23;2.73;;;;;;;;;;10247354;28;20200;-71
2021/08/01 13:08:16;;;;;;;6.47;3.17;;;;;;;;;;10241084;28;20212;-72
2021/08/01 13:13:20;;;;;;;5.23;2.90;;;;;;;;;;10247062;28;20234;-71
2021/08/01 13:18:25;;;;;;;10.87;6.57;;;;;;;;;;10247176;28;20758;-72
2021/08/01 13:23:28;;;;;;;7.70;3.87;;;;;;;;;;10243274;28;20291;-72
2021/08/01 13:28:52;;;;;;;6.90;3.70;;;;;;;;;;10249626;28;20640;-74
2021/08/01 13:33:58;;;;;;;6.37;3.17;;;;;;;;;;10251042;28;20189;-73
2021/08/01 13:39:01;;;;;;;7.63;3.60;;;;;;;;;;10245467;28;20275;-74
2021/08/01 13:44:09;;;;;;;7.03;3.90;;;;;;;;;;10249247;28;20686;-74
2021/08/01 13:49:11;;;;;;;4.87;2.50;;;;;;;;;;10245491;28;20721;-73
2021/08/01 13:54:14;;;;;;;4.80;2.70;;;;;;;;;;10248138;28;20680;-73
2021/08/01 13:59:17;;;;;;;4.07;2.23;;;;;;;;;;10254497;28;20224;-73
2021/08/01 14:04:20;;;;;;;5.00;2.50;;;;;;;;;;10244822;28;20250;-73
2021/08/01 14:09:23;;;;;;;4.50;2.40;;;;;;;;;;10250964;28;20611;-72
2021/08/01 14:14:27;;;;;;;4.47;2.57;;;;;;;;;;10254416;28;20250;-72
2021/08/01 14:19:30;;;;;;;5.10;2.63;;;;;;;;;;10258347;28;20274;-76
2021/08/01 14:24:33;;;;;;;4.57;2.60;;;;;;;;;;10233621;28;20699;-74
2021/08/01 14:29:39;;;;;;;8.43;3.93;;;;;;;;;;10243487;28;20251;-72
2021/08/01 14:34:42;;;;;;;7.03;3.87;;;;;;;;;;10240626;28;20596;-73
2021/08/01 14:39:45;;;;;;;6.23;2.63;;;;;;;;;;10238879;28;20568;-72
2021/08/01 14:44:49;;;;;;;5.17;2.63;;;;;;;;;;10252991;28;20196;-73
2021/08/01 14:49:54;;;;;;;5.50;2.70;;;;;;;;;;10244163;28;20712;-72
2021/08/01 14:54:57;;;;;;;4.90;2.70;;;;;;;;;;10246973;28;20247;-73
2021/08/01 15:00:05;;;;;;;5.10;2.63;;;;;;;;;;10243598;28;20724;-73
2021/08/01 15:05:13;;;;;;;5.33;2.70;;;;;;;;;;10241830;28;20250;-75
2021/08/01 15:10:18;;;;;;;5.90;2.73;;;;;;;;;;10252828;28;20302;-72
2021/08/01 15:15:26;;;;;;;8.10;4.80;;;;;;;;;;10253790;28;20227;-72
2021/08/01 15:20:30;;;;;;;12.47;7.90;;;;;;;;;;10251457;28;20702;-71
2021/08/01 15:25:33;;;;;;;8.30;4.10;;;;;;;;;;10246743;28;22048;-71
2021/08/01 15:30:38;;;;;;;8.83;5.13;;;;;;;;;;10252612;28;20323;-72
2021/08/01 15:35:45;;;;;;;6.30;2.83;;;;;;;;;;10260537;28;20514;-72
2021/08/01 15:40:48;;;;;;;5.00;2.50;;;;;;;;;;10263889;28;20660;-73
2021/08/01 15:45:58;;;;;;;4.23;2.20;;;;;;;;;;10248707;28;20404;-75
2021/08/01 15:51:01;;;;;;;3.60;2.17;;;;;;;;;;10250956;28;20617;-74
2021/08/01 15:56:05;;;;;;;6.87;3.27;;;;;;;;;;10242177;28;20209;-72
2021/08/01 16:01:17;;;;;;;4.93;2.30;;;;;;;;;;10245911;28;20727;-71
2021/08/01 16:06:21;;;;;;;6.40;2.03;;;;;;;;;;10244275;28;20634;-73
2021/08/01 16:11:24;;;;;;;3.50;1.80;;;;;;;;;;10248715;28;20465;-72
2021/08/01 16:16:34;;;;;;;3.20;1.80;;;;;;;;;;10244811;28;20255;-73
2021/08/01 16:21:42;;;;;;;2.83;1.73;;;;;;;;;;10254543;28;20645;-72
2021/08/01 16:26:45;;;;;;;3.67;2.07;;;;;;;;;;10241771;28;20239;-72
2021/08/01 16:31:50;;;;;;;3.47;1.80;;;;;;;;;;10251957;28;20199;-71
2021/08/01 16:36:52;;;;;;;3.87;1.87;;;;;;;;;;10259710;28;20223;-72
2021/08/01 16:42:02;;;;;;;3.43;1.90;;;;;;;;;;10254662;28;20216;-73
2021/08/01 16:47:08;;;;;;;5.00;2.23;;;;;;;;;;10254351;28;20302;-79
2021/08/01 16:52:12;;;;;;;3.73;2.20;;;;;;;;;;10260916;28;20213;-75
2021/08/01 16:57:19;;;;;;;3.33;2.00;;;;;;;;;;10252316;28;20212;-73
2021/08/01 17:02:41;;;;;;;4.00;1.87;;;;;;;;;;10243088;28;20204;-72
2021/08/01 17:07:47;;;;;;;4.57;2.03;;;;;;;;;;10253034;28;20240;-72
2021/08/01 17:12:50;;;;;;;6.10;2.40;;;;;;;;;;10242293;28;20220;-73
2021/08/01 17:17:54;;;;;;;4.83;2.00;;;;;;;;;;10250704;28;20701;-73
2021/08/01 17:22:56;;;;;;;5.80;2.40;;;;;;;;;;10243421;28;20243;-72
2021/08/01 17:27:59;;;;;;;5.70;2.13;;;;;;;;;;10244623;28;20224;-72
2021/08/01 17:33:03;;;;;;;5.70;2.30;;;;;;;;;;10246054;28;20626;-72
2021/08/01 17:38:06;;;;;;;5.00;2.10;;;;;;;;;;10243036;28;20338;-73
2021/08/01 17:43:09;;;;;;;5.57;2.20;;;;;;;;;;10250146;28;20213;-73
2021/08/01 17:48:13;;;;;;;5.27;2.27;;;;;;;;;;10228247;28;20326;-72
2021/08/01 17:53:19;;;;;;;5.47;2.87;;;;;;;;;;10256234;28;20613;-72
2021/08/01 17:58:23;;;;;;;5.93;2.80;;;;;;;;;;10253440;28;20282;-72
2021/08/01 18:03:27;;;;;;;5.60;2.90;;;;;;;;;;10243566;28;20243;-71
2021/08/01 18:08:34;;;;;;;4.63;2.40;;;;;;;;;;10241997;28;20342;-71
2021/08/01 18:13:42;;;;;;;4.30;2.10;;;;;;;;;;10252576;28;20215;-72
2021/08/01 18:18:49;;;;;;;4.33;2.23;;;;;;;;;;10244765;28;20614;-72
2021/08/01 18:23:53;;;;;;;2.53;1.30;;;;;;;;;;10245578;28;20216;-72
2021/08/01 18:28:57;;;;;;;4.73;2.53;;;;;;;;;;10251576;28;20220;-73
2021/08/01 18:34:03;;;;;;;4.40;2.20;;;;;;;;;;10246804;28;20201;-71
2021/08/01 18:39:06;;;;;;;3.63;1.83;;;;;;;;;;10245051;28;20589;-72
2021/08/01 18:44:09;;;;;;;4.93;2.20;;;;;;;;;;10240576;28;20218;-72
2021/08/01 18:49:14;;;;;;;4.43;2.07;;;;;;;;;;10250798;28;20212;-72
2021/08/01 18:54:17;;;;;;;4.40;2.10;;;;;;;;;;10261435;28;20192;-72
2021/08/01 18:59:21;;;;;;;3.40;1.70;;;;;;;;;;10248224;28;20475;-72
2021/08/01 19:04:25;;;;;;;4.57;1.83;;;;;;;;;;10261266;28;20267;-72
2021/08/01 19:09:29;;;;;;;4.40;2.07;;;;;;;;;;10253329;28;20215;-72
2021/08/01 19:14:33;;;;;;;5.10;2.60;;;;;;;;;;10264317;28;20215;-72
2021/08/01 19:19:38;;;;;;;5.00;2.07;;;;;;;;;;10269104;28;20734;-72
2021/08/01 19:24:43;;;;;;;1.97;1.27;;;;;;;;;;10265527;28;20647;-72
2021/08/01 19:29:48;;;;;;;3.03;1.60;;;;;;;;;;10257415;28;20576;-72
2021/08/01 19:34:57;;;;;;;3.33;1.70;;;;;;;;;;10254831;28;20200;-71
2021/08/01 19:40:00;;;;;;;5.37;1.80;;;;;;;;;;10261764;28;20352;-73
2021/08/01 19:45:04;;;;;;;3.53;1.80;;;;;;;;;;10258255;28;20867;-73
2021/08/01 19:50:09;;;;;;;3.13;1.67;;;;;;;;;;10250499;28;20323;-72
2021/08/01 19:55:12;;;;;;;5.03;2.50;;;;;;;;;;10254090;28;20236;-72
2021/08/01 20:00:14;;;;;;;3.90;2.10;;;;;;;;;;10252607;28;20227;-72
2021/08/01 20:05:18;;;;;;;3.90;1.63;;;;;;;;;;10247729;28;20660;-71
2021/08/01 20:10:22;;;;;;;3.07;1.87;;;;;;;;;;10245204;28;20242;-70
2021/08/01 20:15:25;;;;;;;3.80;1.90;;;;;;;;;;10251521;28;20243;-72
2021/08/01 20:20:29;;;;;;;5.00;2.20;;;;;;;;;;10250184;28;20275;-73
2021/08/01 20:25:31;;;;;;;4.73;2.43;;;;;;;;;;10248292;28;20220;-73
2021/08/01 20:30:34;;;;;;;4.80;2.33;;;;;;;;;;10248671;28;20255;-73
2021/08/01 20:35:38;;;;;;;3.93;2.00;;;;;;;;;;10248156;28;20696;-73
2021/08/01 20:40:40;;;;;;;4.77;2.27;;;;;;;;;;10248302;28;20243;-71
2021/08/01 20:45:43;;;;;;;5.20;2.30;;;;;;;;;;10250780;28;20228;-71
2021/08/01 20:50:47;;;;;;;4.33;2.17;;;;;;;;;;10244237;28;20609;-72
2021/08/01 20:55:50;;;;;;;3.90;2.07;;;;;;;;;;10251014;28;20218;-73
2021/08/01 21:00:53;;;;;;;5.60;2.17;;;;;;;;;;10249910;28;20207;-71
2021/08/01 21:05:57;;;;;;;6.03;2.90;;;;;;;;;;10243274;28;20595;-73
2021/08/01 21:11:00;;;;;;;5.77;2.50;;;;;;;;;;10241410;28;20200;-72
2021/08/01 21:16:02;;;;;;;5.83;2.70;;;;;;;;;;10245783;28;20325;-72
2021/08/01 21:21:06;;;;;;;9.43;5.30;;;;;;;;;;10243986;28;20208;-71
2021/08/01 21:26:10;;;;;;;6.70;2.43;;;;;;;;;;10238193;28;20242;-72
2021/08/01 21:31:13;;;;;;;5.03;2.33;;;;;;;;;;10248490;28;20235;-73
2021/08/01 21:36:17;;;;;;;7.17;2.90;;;;;;;;;;10241303;28;20209;-71
2021/08/01 21:41:21;;;;;;;6.43;2.47;;;;;;;;;;10238812;28;20287;-71
2021/08/01 21:46:24;;;;;;;4.97;2.50;;;;;;;;;;10243318;28;20221;-70
2021/08/01 21:51:28;;;;;;;5.87;2.60;;;;;;;;;;10244406;28;20299;-70
2021/08/01 21:56:31;;;;;;;3.83;2.20;;;;;;;;;;10239040;28;20244;-71
2021/08/01 22:01:34;;;;;;;4.80;2.30;;;;;;;;;;10250663;28;20232;-71
2021/08/01 22:06:40;;;;;;;5.33;2.40;;;;;;;;;;10252896;28;20378;-70
2021/08/01 22:11:43;;;;;;;4.13;2.00;;;;;;;;;;10248126;28;20247;-71
2021/08/01 22:16:46;;;;;;;5.47;2.00;;;;;;;;;;10246293;28;20224;-71
2021/08/01 22:21:50;;;;;;;4.90;1.90;;;;;;;;;;10247993;28;20239;-70
2021/08/01 22:26:52;;;;;;;5.57;2.20;;;;;;;;;;10232476;28;20259;-72
2021/08/01 22:31:55;;;;;;;5.30;2.07;;;;;;;;;;10250908;28;20701;-72
2021/08/01 22:36:59;;;;;;;5.23;1.87;;;;;;;;;;10238470;28;20287;-73
2021/08/01 22:42:03;;;;;;;3.90;1.90;;;;;;;;;;10239082;28;20975;-71
2021/08/01 22:47:05;;;;;;;3.40;1.90;;;;;;;;;;10240311;28;20725;-72
2021/08/01 22:52:09;;;;;;;3.03;1.67;;;;;;;;;;10247241;28;20276;-73
2021/08/01 22:57:12;;;;;;;4.00;1.80;;;;;;;;;;10259405;28;20212;-72
2021/08/01 23:02:19;;;;;;;3.40;2.07;;;;;;;;;;10238655;28;20275;-73
2021/08/01 23:07:27;;;;;;;2.97;1.80;;;;;;;;;;10239700;28;20406;-73
2021/08/01 23:12:31;;;;;;;2.77;1.80;;;;;;;;;;10248086;28;20247;-73
2021/08/01 23:17:45;;;;;;;3.87;2.00;;;;;;;;;;10260676;28;20368;-71
2021/08/01 23:22:52;;;;;;;4.47;2.10;;;;;;;;;;10237702;28;20295;-72
2021/08/01 23:27:54;;;;;;;3.67;1.80;;;;;;;;;;10229348;28;20216;-73
2021/08/01 23:32:58;;;;;;;3.50;1.70;;;;;;;;;;10253340;28;20202;-72
2021/08/01 23:38:03;;;;;;;2.77;1.50;;;;;;;;;;10266315;28;20227;-71
2021/08/01 23:43:07;;;;;;;3.20;1.77;;;;;;;;;;10258761;28;20236;-72
2021/08/01 23:48:10;;;;;;;4.63;1.70;;;;;;;;;;10252476;28;20287;-71
2021/08/01 23:53:16;;;;;;;3.63;1.60;;;;;;;;;;10248222;28;20206;-72
2021/08/01 23:58:25;;;;;;;4.27;2.20;;;;;;;;;;10250046;28;20256;-69
